Time;durP1;ratioP1;P1;durP2;ratioP2;P2;SDS_P1;SDS_P2;PMS_P1;PMS_P2;Temp;Humidity;BMP_temperature;BMP_pressure;BME280_temperature;BME280_humidity;BME280_pressure;Samples;Min_cycle;Max_cycle;Signal;HPM_P1;HPM_P2
2021/08/08 00:00:48;;;;;;;4.48;2.34;;;;;;;22.86;49.73;99187.16;391591;104;1987059;-71
2021/08/08 00:01:54;;;;;;;4.06;2.13;;;;;;;22.81;49.65;99191.64;323529;105;2875973;-71
2021/08/08 00:03:17;;;;;;;6.92;2.90;;;;;;;22.77;49.72;99182.33;371892;107;1961978;-71
2021/08/08 00:04:29;;;;;;;5.22;2.68;;;;;;;22.84;49.97;99187.48;343126;103;2326963;-70
2021/08/08 00:05:35;;;;;;;7.07;4.01;;;;;;;22.76;49.91;99186.21;343828;106;1962023;-71
2021/08/08 00:06:41;;;;;;;5.57;2.46;;;;;;;22.79;49.87;99182.05;375601;106;1961930;-71
2021/08/08 00:07:54;;;;;;;4.84;2.63;;;;;;;22.92;49.86;99186.80;377490;108;1987059;-72
2021/08/08 00:09:00;;;;;;;5.38;2.64;;;;;;;22.77;49.79;99196.09;335535;110;2441971;-71
2021/08/08 00:10:13;;;;;;;8.34;4.88;;;;;;;22.87;50.01;99194.33;385185;106;2071973;-70
2021/08/08 00:11:19;;;;;;;18.37;14.97;;;;;;;22.75;50.02;99197.52;372306;107;1961886;-70
2021/08/08 00:12:31;;;;;;;9.39;6.29;;;;;;;22.88;50.30;99201.45;389026;103;2073996;-70
2021/08/08 00:13:36;;;;;;;7.01;4.07;;;;;;;22.78;50.24;99199.66;372269;107;1962064;-71
2021/08/08 00:15:01;;;;;;;10.28;6.47;;;;;;;22.76;50.38;99193.66;330490;107;2884030;-70
2021/08/08 00:16:13;;;;;;;8.37;4.54;;;;;;;22.84;50.53;99204.00;393642;104;1964989;-70
2021/08/08 00:17:18;;;;;;;8.26;4.35;;;;;;;22.74;50.44;99202.20;373926;107;1962982;-71
2021/08/08 00:18:31;;;;;;;7.37;4.08;;;;;;;22.72;50.85;99196.17;329449;107;2855912;-70
2021/08/08 00:19:37;;;;;;;8.07;4.66;;;;;;;22.60;50.80;99202.13;344924;109;1962038;-71
2021/08/08 00:21:02;;;;;;;6.53;3.64;;;;;;;22.59;50.88;99203.23;327521;109;1963957;-70
2021/08/08 00:22:14;;;;;;;6.52;3.55;;;;;;;22.68;51.06;99199.80;389463;106;1987015;-71
2021/08/08 00:23:19;;;;;;;7.57;3.58;;;;;;;22.58;50.92;99204.36;363769;109;1962089;-71
2021/08/08 00:24:31;;;;;;;7.53;4.03;;;;;;;22.63;51.19;99206.23;403010;101;1985961;-70
2021/08/08 00:25:37;;;;;;;7.40;4.04;;;;;;;22.50;51.25;99207.78;384074;104;1962076;-69
2021/08/08 00:26:42;;;;;;;217.42;173.07;;;;;;;22.56;51.16;99206.58;359025;105;1961969;-71
2021/08/08 00:27:54;;;;;;;38.33;30.97;;;;;;;22.67;51.27;99196.24;393920;104;1985994;-70
2021/08/08 00:29:00;;;;;;;14.71;11.40;;;;;;;22.53;51.28;99206.37;368332;108;1962004;-71
2021/08/08 00:30:13;;;;;;;10.27;7.06;;;;;;;22.66;51.41;99199.31;341781;104;2148010;-70
2021/08/08 00:31:24;;;;;;;9.02;5.47;;;;;;;22.58;51.42;99190.59;373672;105;1965058;-70
2021/08/08 00:32:45;;;;;;;9.98;6.34;;;;;;;22.56;51.34;99195.57;372992;108;1961963;-72
2021/08/08 00:33:57;;;;;;;11.53;8.13;;;;;;;22.63;51.48;99194.41;383650;106;2071987;-71
2021/08/08 00:35:04;;;;;;;7.62;4.28;;;;;;;22.52;51.39;99194.54;318067;109;2873977;-70
2021/08/08 00:36:16;;;;;;;11.37;6.61;;;;;;;22.59;51.56;99197.73;393763;103;1986028;-71
2021/08/08 00:37:29;;;;;;;6.83;4.23;;;;;;;22.65;51.59;99192.15;333333;104;2212008;-71
2021/08/08 00:38:56;;;;;;;8.27;5.11;;;;;;;22.64;51.28;99190.52;330315;105;2770874;-71
2021/08/08 00:40:09;;;;;;;8.43;5.24;;;;;;;22.74;51.37;99199.45;393978;104;1987009;-70
2021/08/08 00:41:15;;;;;;;9.39;5.23;;;;;;;22.59;51.19;99200.48;372501;105;1962879;-71
2021/08/08 00:42:28;;;;;;;9.12;5.06;;;;;;;22.72;51.58;99200.86;388147;106;1963947;-71
2021/08/08 00:43:34;;;;;;;10.64;5.32;;;;;;;22.46;51.97;99206.72;324456;107;2870029;-71
2021/08/08 00:44:58;;;;;;;9.27;4.94;;;;;;;22.39;52.27;99204.34;372627;107;1961989;-72
2021/08/08 00:46:11;;;;;;;8.81;5.28;;;;;;;22.55;52.53;99204.14;389208;104;2072861;-71
2021/08/08 00:47:16;;;;;;;9.15;5.32;;;;;;;22.51;52.17;99200.33;374782;105;1962008;-72
2021/08/08 00:48:29;;;;;;;8.33;4.85;;;;;;;22.52;52.41;99197.30;384536;106;1986983;-71
2021/08/08 00:49:34;;;;;;;9.14;5.13;;;;;;;22.43;52.46;99190.80;369129;108;1962070;-70
2021/08/08 00:50:58;;;;;;;7.68;4.52;;;;;;;22.39;52.44;99198.02;368275;108;1963880;-70
2021/08/08 00:52:10;;;;;;;8.53;4.97;;;;;;;22.43;52.48;99193.55;342046;104;2888040;-71
2021/08/08 00:53:17;;;;;;;7.11;4.53;;;;;;;22.38;52.53;99194.43;360003;109;1962885;-71
2021/08/08 00:54:30;;;;;;;8.61;5.36;;;;;;;22.46;52.53;99197.64;391564;104;2073911;-70
2021/08/08 00:55:36;;;;;;;8.73;5.47;;;;;;;22.31;52.68;99199.50;345722;108;1961029;-71
2021/08/08 00:57:00;;;;;;;8.43;4.96;;;;;;;22.29;52.66;99196.22;363380;107;1962057;-71
2021/08/08 00:58:06;;;;;;;8.88;4.71;;;;;;;22.27;52.76;99194.88;328600;107;1961860;-71
2021/08/08 00:59:19;;;;;;;9.07;5.39;;;;;;;22.37;52.89;99194.74;392355;104;2071983;-70
2021/08/08 01:00:26;;;;;;;8.95;4.96;;;;;;;22.26;52.78;99204.25;378220;106;1960847;-70
2021/08/08 01:01:36;;;;;;;8.38;4.81;;;;;;;22.26;52.83;99202.31;311654;106;2201831;-72
2021/08/08 01:02:52;;;;;;;8.59;5.11;;;;;;;22.28;53.25;99194.59;392216;104;1986884;-71
2021/08/08 01:04:04;;;;;;;9.16;5.68;;;;;;;22.27;53.26;99192.12;389234;106;1985059;-70
2021/08/08 01:05:45;;;;;;;8.23;5.27;;;;;;;22.08;53.26;99198.37;371684;108;1960847;-70
2021/08/08 01:06:57;;;;;;;;;;;;;;;22.07;53.41;99196.73;326572;109;2721605;-71
2021/08/08 01:08:07;;;;;;;10.69;4.94;;;;;;;22.10;53.60;99196.15;367308;107;1959684;-69
2021/08/08 01:09:23;;;;;;;8.47;5.60;;;;;;;22.09;53.73;99199.18;395758;104;1986033;-72
2021/08/08 01:10:33;;;;;;;13.36;6.52;;;;;;;22.02;53.63;99213.30;378920;106;1963018;-72
2021/08/08 01:11:47;;;;;;;11.72;6.91;;;;;;;22.27;53.47;99214.95;397831;104;1986971;-71
2021/08/08 01:12:55;;;;;;;17.69;12.38;;;;;;;22.17;53.26;99213.12;377152;105;1962020;-71
2021/08/08 01:14:20;;;;;;;9.06;6.04;;;;;;;22.17;53.20;99215.87;339338;107;2597839;-70
2021/08/08 01:15:52;;;;;;;8.12;4.47;;;;;;;22.29;53.53;99211.91;415486;99;1987003;-70
2021/08/08 01:17:04;;;;;;;7.36;4.51;;;;;;;22.19;53.25;99215.59;394532;101;1961998;-71
2021/08/08 01:18:16;;;;;;;6.49;4.34;;;;;;;22.26;53.46;99207.81;387091;104;1985937;-70
2021/08/08 01:19:32;;;;;;;8.79;4.74;;;;;;;22.28;53.45;99216.60;358378;101;2094960;-70
2021/08/08 01:20:58;;;;;;;8.72;5.21;;;;;;;22.15;53.35;99220.03;382935;105;1962016;-72
2021/08/08 01:22:10;;;;;;;7.01;4.39;;;;;;;22.34;53.30;99209.91;391659;104;1964896;-71
2021/08/08 01:23:17;;;;;;;50.93;33.88;;;;;;;22.23;53.18;99213.06;364558;108;1969979;-71
2021/08/08 01:24:41;;;;;;;24.26;16.11;;;;;;;22.21;53.16;99213.38;364821;107;1962053;-72
2021/08/08 01:25:47;;;;;;;8.60;5.56;;;;;;;22.21;53.24;99213.38;362849;109;1965999;-72
2021/08/08 01:27:02;;;;;;;8.47;4.57;;;;;;;22.31;53.39;99215.20;366790;104;2405919;-70
2021/08/08 01:28:09;;;;;;;7.63;4.53;;;;;;;22.13;53.40;99220.31;370375;107;1962069;-69
2021/08/08 01:29:21;;;;;;;8.47;4.64;;;;;;;22.24;53.49;99222.98;389402;106;1965026;-71
2021/08/08 01:30:28;;;;;;;7.76;4.23;;;;;;;22.09;53.48;99221.19;371926;107;1961982;-70
2021/08/08 01:31:53;;;;;;;8.67;4.32;;;;;;;22.06;53.55;99224.52;372687;107;1962032;-70
2021/08/08 01:33:07;;;;;;;7.37;4.36;;;;;;;22.19;53.51;99231.29;371715;104;2339727;-70
2021/08/08 01:34:15;;;;;;;14.27;7.33;;;;;;;22.08;53.44;99227.81;328562;107;2724986;-71
2021/08/08 01:35:27;;;;;;;15.76;10.80;;;;;;;22.17;53.64;99226.03;384146;106;2072044;-71
2021/08/08 01:36:39;;;;;;;17.71;10.43;;;;;;;22.16;53.79;99230.72;388628;106;1987023;-70
2021/08/08 01:38:07;;;;;;;16.42;10.42;;;;;;;21.98;53.90;99241.67;352702;111;1961854;-71
2021/08/08 01:39:21;;;;;;;16.46;9.34;;;;;;;22.11;53.87;99244.53;385751;106;1985918;-71
2021/08/08 01:40:50;;;;;;;16.69;9.78;;;;;;;22.02;53.72;99235.30;369575;109;1961867;-69
2021/08/08 01:42:06;;;;;;;9.62;5.39;;;;;;;22.19;53.84;99229.35;392484;104;1986009;-71
2021/08/08 01:43:25;;;;;;;8.06;4.68;;;;;;;22.07;53.93;99221.50;395004;104;1985890;-71
2021/08/08 01:44:43;;;;;;;7.13;4.04;;;;;;;22.13;53.75;99222.25;396821;104;1987018;-72
2021/08/08 01:46:11;;;;;;;6.42;3.99;;;;;;;22.06;53.69;99224.52;380004;105;1962078;-72
2021/08/08 01:47:30;;;;;;;6.65;4.16;;;;;;;22.07;53.80;99228.91;390107;106;1985974;-72
2021/08/08 01:48:40;;;;;;;7.69;4.40;;;;;;;21.97;53.69;99224.36;349396;107;1961999;-71
2021/08/08 01:50:05;;;;;;;6.97;4.40;;;;;;;21.94;53.71;99228.51;372845;107;1962115;-70
2021/08/08 01:51:18;;;;;;;7.86;3.93;;;;;;;22.02;53.89;99234.48;366788;104;1962014;-71
2021/08/08 01:52:31;;;;;;;11.33;5.41;;;;;;;22.03;53.88;99231.43;393649;104;1964879;-71
2021/08/08 01:53:57;;;;;;;7.26;4.29;;;;;;;21.91;53.79;99223.59;325902;105;2875049;-72
2021/08/08 01:55:04;;;;;;;7.18;4.16;;;;;;;21.94;53.80;99222.20;380996;105;1961868;-71
2021/08/08 01:56:13;;;;;;;6.96;4.02;;;;;;;21.99;53.67;99221.30;348272;105;2473052;-70
2021/08/08 01:57:26;;;;;;;6.93;3.90;;;;;;;22.05;53.78;99217.39;397074;104;1973009;-70
2021/08/08 01:58:35;;;;;;;7.59;4.35;;;;;;;21.97;53.78;99224.36;352088;106;1962010;-70
2021/08/08 01:59:48;;;;;;;7.27;4.02;;;;;;;22.07;53.72;99224.25;349454;103;2778983;-71
2021/08/08 02:00:55;;;;;;;5.42;3.32;;;;;;;21.93;53.65;99223.28;369968;108;1960820;-70
2021/08/08 02:02:16;;;;;;;7.72;3.99;;;;;;;22.06;53.73;99222.59;395027;104;1985834;-70
2021/08/08 02:03:38;;;;;;;7.53;4.10;;;;;;;21.96;53.67;99225.45;323381;107;2070989;-70
2021/08/08 02:04:50;;;;;;;8.64;4.27;;;;;;;22.10;53.88;99218.16;395008;104;1984972;-71
2021/08/08 02:05:56;;;;;;;6.79;4.08;;;;;;;22.00;53.70;99226.52;372459;107;1961946;-70
2021/08/08 02:07:22;;;;;;;7.80;4.30;;;;;;;21.99;53.60;99222.14;374834;107;1963981;-68
2021/08/08 02:08:36;;;;;;;7.22;3.81;;;;;;;22.12;53.62;99221.44;392634;104;1986975;-69
2021/08/08 02:09:46;;;;;;;9.09;4.42;;;;;;;22.07;53.42;99223.41;373702;106;1962991;-71
2021/08/08 02:10:58;;;;;;;7.06;4.49;;;;;;;22.18;53.49;99219.44;394327;104;2072002;-70
2021/08/08 02:12:06;;;;;;;6.52;3.81;;;;;;;22.23;53.05;99227.67;375740;107;1962056;-70
2021/08/08 02:13:30;;;;;;;6.81;3.89;;;;;;;22.03;53.25;99236.12;318717;109;2079880;-71
2021/08/08 02:14:42;;;;;;;6.57;4.09;;;;;;;22.36;52.82;99226.11;389169;104;2071866;-71
2021/08/08 02:15:47;;;;;;;7.23;4.29;;;;;;;22.31;52.64;99228.95;374886;107;1963861;-70
2021/08/08 02:16:55;;;;;;;5.86;4.09;;;;;;;22.27;52.49;99225.95;339793;109;2472996;-71
2021/08/08 02:18:07;;;;;;;8.43;3.61;;;;;;;22.40;52.60;99229.92;393442;104;1961990;-71
2021/08/08 02:19:15;;;;;;;5.82;3.56;;;;;;;22.11;52.78;99227.22;330387;107;2890961;-70
2021/08/08 02:20:27;;;;;;;8.43;4.76;;;;;;;22.14;52.97;99227.44;379873;108;1961993;-70
2021/08/08 02:21:34;;;;;;;7.86;4.62;;;;;;;21.99;53.03;99229.55;360361;112;1970031;-70
2021/08/08 02:23:00;;;;;;;8.33;4.76;;;;;;;21.98;53.08;99225.98;309919;111;2820966;-71
2021/08/08 02:24:13;;;;;;;9.64;6.33;;;;;;;22.08;53.04;99234.13;396715;104;1964787;-72
2021/08/08 02:25:21;;;;;;;10.07;6.86;;;;;;;21.97;53.00;99226.30;328693;105;2802917;-71
2021/08/08 02:26:32;;;;;;;10.90;7.83;;;;;;;22.05;53.03;99234.72;383008;106;2071987;-70
2021/08/08 02:27:41;;;;;;;12.23;7.90;;;;;;;21.93;53.19;99228.78;368485;108;1962048;-71
2021/08/08 02:29:06;;;;;;;11.62;6.82;;;;;;;21.93;53.36;99237.04;320054;108;2044005;-71
2021/08/08 02:30:18;;;;;;;8.57;5.33;;;;;;;22.03;53.47;99231.43;397418;104;1986984;-69
2021/08/08 02:31:23;;;;;;;8.84;4.93;;;;;;;21.95;53.30;99238.38;380851;105;1963089;-71
2021/08/08 02:32:36;;;;;;;8.38;5.39;;;;;;;22.09;53.33;99234.94;384599;106;1985848;-71
2021/08/08 02:33:42;;;;;;;8.41;4.75;;;;;;;21.93;53.44;99239.78;311992;110;2129885;-72
2021/08/08 02:35:06;;;;;;;7.06;4.53;;;;;;;21.90;53.50;99234.88;363286;110;1961923;-71
2021/08/08 02:36:18;;;;;;;6.98;4.57;;;;;;;21.98;53.71;99242.48;404963;101;1986012;-71
2021/08/08 02:37:26;;;;;;;7.48;3.92;;;;;;;21.91;53.59;99240.09;380934;103;1961913;-71
2021/08/08 02:38:38;;;;;;;8.18;4.60;;;;;;;21.93;53.93;99240.60;392373;104;1961972;-71
2021/08/08 02:39:44;;;;;;;6.47;4.09;;;;;;;21.82;53.92;99244.58;372180;107;1969930;-71
2021/08/08 02:41:08;;;;;;;9.72;3.97;;;;;;;21.78;54.00;99240.78;322798;107;2106963;-71
2021/08/08 02:42:14;;;;;;;7.96;3.88;;;;;;;21.76;54.18;99247.68;374565;107;1961953;-72
2021/08/08 02:43:26;;;;;;;7.36;4.19;;;;;;;21.87;54.17;99244.52;393651;104;1986974;-71
2021/08/08 02:44:33;;;;;;;7.04;3.72;;;;;;;21.76;54.20;99244.93;326827;107;2860956;-71
2021/08/08 02:45:49;;;;;;;7.87;4.52;;;;;;;21.81;54.38;99244.88;392431;104;1964076;-71
2021/08/08 02:46:54;;;;;;;8.93;4.54;;;;;;;21.73;54.34;99243.58;377434;106;1970058;-71
2021/08/08 02:47:59;;;;;;;7.42;4.79;;;;;;;21.69;54.37;99242.51;374164;107;1964069;-71
2021/08/08 02:49:04;;;;;;;7.55;4.89;;;;;;;21.76;54.41;99244.93;370144;107;1962055;-71
2021/08/08 02:50:17;;;;;;;10.42;4.55;;;;;;;22.10;53.78;99247.59;387697;106;2073059;-71
2021/08/08 02:51:23;;;;;;;8.76;4.57;;;;;;;22.10;53.42;99245.66;326667;108;2791898;-70
2021/08/08 02:52:38;;;;;;;7.95;4.76;;;;;;;22.26;53.36;99248.27;391117;103;2073131;-71
2021/08/08 02:53:44;;;;;;;7.97;4.74;;;;;;;22.14;53.28;99248.64;307805;107;2188941;-72
2021/08/08 02:54:56;;;;;;;8.34;4.22;;;;;;;22.11;53.69;99244.53;394375;104;1987038;-71
2021/08/08 02:56:01;;;;;;;8.06;5.02;;;;;;;22.09;53.53;99248.69;373485;106;1962032;-71
2021/08/08 02:57:14;;;;;;;23.62;19.07;;;;;;;22.21;53.52;99248.33;345997;103;2796037;-70
2021/08/08 02:58:19;;;;;;;14.78;10.87;;;;;;;22.10;53.26;99250.35;341394;107;1962092;-70
2021/08/08 02:59:43;;;;;;;20.38;14.38;;;;;;;22.29;52.99;99244.93;374668;107;1960958;-71
2021/08/08 03:00:56;;;;;;;23.57;15.08;;;;;;;22.45;52.92;99246.37;397997;103;1971914;-70
2021/08/08 03:02:01;;;;;;;10.21;5.96;;;;;;;22.16;52.95;99249.98;382067;105;1961052;-71
2021/08/08 03:03:14;;;;;;;10.72;6.89;;;;;;;22.38;53.02;99240.40;393904;104;1987015;-71
2021/08/08 03:04:20;;;;;;;10.20;5.74;;;;;;;22.37;52.74;99244.28;315943;107;2157074;-69
2021/08/08 03:05:32;;;;;;;10.67;6.49;;;;;;;22.41;52.99;99244.50;385516;105;1985847;-72
2021/08/08 03:06:46;;;;;;;13.13;6.02;;;;;;;22.21;53.13;99249.14;367732;107;1962034;-71
2021/08/08 03:08:10;;;;;;;11.18;6.02;;;;;;;22.27;53.00;99247.96;316882;108;2834851;-70
2021/08/08 03:09:22;;;;;;;10.13;6.01;;;;;;;22.30;53.36;99249.30;395334;104;1970683;-71
2021/08/08 03:10:29;;;;;;;13.36;6.68;;;;;;;22.39;52.77;99253.06;376462;107;1961034;-70
2021/08/08 03:11:36;;;;;;;11.17;5.97;;;;;;;22.41;52.64;99253.56;367107;107;2899986;-71
2021/08/08 03:12:41;;;;;;;10.94;6.60;;;;;;;22.50;52.48;99249.06;348540;107;1962046;-72
2021/08/08 03:13:53;;;;;;;10.73;5.98;;;;;;;22.61;52.45;99246.99;393840;103;1987011;-71
2021/08/08 03:14:58;;;;;;;12.57;6.58;;;;;;;22.02;53.45;99251.80;377295;106;1961955;-73
2021/08/08 03:16:11;;;;;;;10.64;6.13;;;;;;;22.43;53.15;99256.84;341115;104;2864988;-72
2021/08/08 03:17:17;;;;;;;12.21;5.42;;;;;;;22.33;52.88;99251.47;376445;107;1961992;-71
2021/08/08 03:18:42;;;;;;;12.79;5.81;;;;;;;22.49;52.59;99258.45;354501;108;1962989;-70
2021/08/08 03:19:55;;;;;;;13.20;6.57;;;;;;;22.70;52.27;99252.65;391999;103;2071970;-72
2021/08/08 03:21:01;;;;;;;9.32;5.87;;;;;;;22.58;52.19;99247.59;374148;106;1961030;-72
2021/08/08 03:22:07;;;;;;;11.25;5.89;;;;;;;22.52;52.40;99246.00;343769;107;1962034;-70
2021/08/08 03:23:13;;;;;;;10.25;5.54;;;;;;;22.49;52.47;99252.94;372562;107;1960953;-72
2021/08/08 03:24:28;;;;;;;9.79;5.49;;;;;;;22.59;52.52;99239.02;393149;104;1993906;-72
2021/08/08 03:25:33;;;;;;;10.38;6.24;;;;;;;22.49;52.53;99241.94;374628;106;1961943;-70
2021/08/08 03:26:46;;;;;;;10.22;5.52;;;;;;;22.73;52.26;99241.03;397753;104;1985957;-72
2021/08/08 03:27:52;;;;;;;9.55;5.31;;;;;;;22.32;52.60;99255.34;333894;105;2744941;-72
2021/08/08 03:29:16;;;;;;;8.78;4.60;;;;;;;22.36;52.82;99248.13;374031;105;1960773;-71
2021/08/08 03:30:28;;;;;;;8.10;4.62;;;;;;;22.25;53.03;99244.67;398601;101;2070820;-70
2021/08/08 03:31:33;;;;;;;9.09;4.09;;;;;;;22.19;52.92;99250.55;382730;104;1965006;-71
2021/08/08 03:32:45;;;;;;;6.92;4.02;;;;;;;22.52;52.40;99238.58;390033;104;1985942;-70
2021/08/08 03:33:52;;;;;;;8.36;4.39;;;;;;;22.38;52.42;99243.15;371189;107;1962031;-71
2021/08/08 03:35:16;;;;;;;6.97;4.04;;;;;;;22.34;52.45;99247.63;370537;108;1963063;-71
2021/08/08 03:36:28;;;;;;;9.63;4.69;;;;;;;22.43;52.40;99248.59;327988;104;2303013;-72
2021/08/08 03:37:34;;;;;;;6.48;4.18;;;;;;;22.33;52.39;99254.22;371418;106;1963922;-72
2021/08/08 03:38:46;;;;;;;6.43;4.15;;;;;;;22.43;52.31;99251.34;395349;104;1987052;-71
2021/08/08 03:39:51;;;;;;;8.67;4.18;;;;;;;22.37;52.29;99249.78;376624;106;1961988;-70
2021/08/08 03:41:16;;;;;;;8.33;3.94;;;;;;;22.37;52.26;99256.09;377311;106;1962017;-71
2021/08/08 03:42:28;;;;;;;7.68;4.34;;;;;;;22.50;52.23;99251.81;385650;104;3063889;-72
2021/08/08 03:43:40;;;;;;;6.37;3.62;;;;;;;22.54;52.05;99255.59;405860;101;1986026;-72
2021/08/08 03:44:45;;;;;;;6.21;3.79;;;;;;;22.46;52.03;99256.26;383226;104;1962067;-72
2021/08/08 03:45:51;;;;;;;7.74;4.32;;;;;;;22.48;51.91;99258.73;384311;105;1962057;-71
2021/08/08 03:46:58;;;;;;;7.22;4.04;;;;;;;22.51;51.91;99258.95;382249;105;1961971;-71
2021/08/08 03:48:05;;;;;;;7.96;4.48;;;;;;;22.56;51.74;99263.58;342980;105;2607152;-72
2021/08/08 03:49:18;;;;;;;8.88;4.75;;;;;;;22.74;51.55;99256.46;392193;103;1965055;-70
2021/08/08 03:50:25;;;;;;;8.36;4.63;;;;;;;22.65;51.47;99263.73;322137;106;2849985;-72
2021/08/08 03:51:38;;;;;;;7.97;4.07;;;;;;;22.76;51.48;99255.05;394192;104;1965953;-72
2021/08/08 03:52:44;;;;;;;6.52;3.79;;;;;;;22.73;51.35;99254.80;373450;106;1971084;-73
2021/08/08 03:54:07;;;;;;;6.95;4.37;;;;;;;22.87;50.94;99254.91;377661;106;1962042;-72
2021/08/08 03:55:20;;;;;;;7.81;4.18;;;;;;;22.94;51.02;99256.19;347368;104;2737902;-72
2021/08/08 03:56:26;;;;;;;8.08;4.23;;;;;;;22.80;51.05;99260.77;373839;107;1965078;-71
2021/08/08 03:57:38;;;;;;;11.06;5.21;;;;;;;22.95;51.08;99257.81;392217;104;1985964;-71
2021/08/08 03:58:45;;;;;;;8.69;4.43;;;;;;;22.87;51.03;99257.67;337142;107;2337987;-71
2021/08/08 04:00:11;;;;;;;8.12;5.28;;;;;;;22.78;51.18;99263.84;366892;109;1962909;-72
2021/08/08 04:01:23;;;;;;;9.12;5.71;;;;;;;23.02;50.95;99251.94;396315;104;1965048;-71
2021/08/08 04:02:28;;;;;;;9.84;6.40;;;;;;;22.93;50.99;99257.28;380040;105;1962027;-71
2021/08/08 04:03:41;;;;;;;7.36;4.97;;;;;;;23.10;50.96;99255.96;359945;106;2885076;-71
2021/08/08 04:04:46;;;;;;;11.08;5.58;;;;;;;22.94;50.98;99258.94;344660;109;1961935;-71
2021/08/08 04:06:11;;;;;;;9.23;5.36;;;;;;;22.98;50.98;99264.69;303586;109;2245014;-70
2021/08/08 04:07:31;;;;;;;9.68;5.68;;;;;;;23.14;51.06;99257.02;395997;104;1987000;-71
2021/08/08 04:08:38;;;;;;;10.16;4.44;;;;;;;23.05;50.91;99256.88;369768;108;1962063;-71
2021/08/08 04:09:51;;;;;;;9.38;5.88;;;;;;;23.11;51.01;99257.62;395313;104;1986055;-71
2021/08/08 04:10:58;;;;;;;11.03;5.96;;;;;;;22.91;51.20;99261.45;373535;107;1963457;-71
2021/08/08 04:12:22;;;;;;;8.55;4.94;;;;;;;22.85;51.41;99259.89;328812;107;2748880;-70
2021/08/08 04:13:34;;;;;;;10.44;6.06;;;;;;;23.01;51.42;99258.58;403998;101;2072014;-71
2021/08/08 04:14:41;;;;;;;10.26;5.38;;;;;;;22.91;51.50;99266.95;389010;103;1960880;-71
2021/08/08 04:15:53;;;;;;;8.48;5.38;;;;;;;23.09;51.55;99265.36;388199;104;1984937;-70
2021/08/08 04:16:59;;;;;;;9.78;6.08;;;;;;;22.97;51.58;99266.63;374621;107;1961941;-71
2021/08/08 04:18:12;;;;;;;9.98;6.34;;;;;;;23.19;51.45;99262.45;391166;103;1985931;-71
2021/08/08 04:19:18;;;;;;;10.20;5.29;;;;;;;23.07;51.43;99260.13;336199;109;1960689;-71
2021/08/08 04:20:42;;;;;;;9.06;5.66;;;;;;;23.16;51.20;99266.63;371579;109;1963836;-71
2021/08/08 04:21:54;;;;;;;9.30;5.79;;;;;;;23.32;51.08;99266.39;391655;104;2070912;-71
2021/08/08 04:22:59;;;;;;;7.65;4.92;;;;;;;23.18;51.17;99266.30;377131;105;1961039;-71
2021/08/08 04:24:11;;;;;;;10.19;5.39;;;;;;;23.31;51.06;99268.30;393655;104;1986986;-71
2021/08/08 04:25:16;;;;;;;8.22;4.21;;;;;;;23.18;51.15;99274.56;375134;107;1961971;-72
2021/08/08 04:26:29;;;;;;;8.69;4.74;;;;;;;23.51;50.42;99269.11;370650;102;2504039;-72
2021/08/08 04:27:34;;;;;;;10.79;5.57;;;;;;;23.43;50.38;99267.85;343218;103;1963914;-71
2021/08/08 04:28:58;;;;;;;7.43;4.61;;;;;;;23.46;50.35;99273.57;376320;105;1960773;-70
2021/08/08 04:30:11;;;;;;;8.18;4.89;;;;;;;23.65;50.30;99272.71;395567;103;1964993;-71
2021/08/08 04:31:17;;;;;;;8.94;5.07;;;;;;;23.57;50.22;99265.95;374475;105;1970053;-72
2021/08/08 04:32:23;;;;;;;8.34;4.54;;;;;;;23.62;50.14;99270.56;376025;105;1961976;-72
2021/08/08 04:33:30;;;;;;;8.39;5.01;;;;;;;23.67;49.87;99264.96;325722;108;2762045;-72
2021/08/08 04:34:35;;;;;;;8.36;4.53;;;;;;;23.73;49.78;99266.53;337307;108;1962083;-71
2021/08/08 04:35:47;;;;;;;6.91;4.61;;;;;;;23.85;49.56;99261.36;394596;104;1986999;-71
2021/08/08 04:36:54;;;;;;;10.17;5.19;;;;;;;23.72;49.75;99269.61;376724;106;1962075;-72
2021/08/08 04:38:01;;;;;;;8.42;4.66;;;;;;;23.79;49.60;99264.50;365976;107;2918989;-71
2021/08/08 04:39:13;;;;;;;9.57;5.68;;;;;;;23.93;49.56;99259.84;392526;103;1987018;-71
2021/08/08 04:40:20;;;;;;;10.70;5.51;;;;;;;23.83;49.51;99260.02;372380;107;1962075;-72
2021/08/08 04:41:32;;;;;;;8.00;5.06;;;;;;;23.99;49.34;99258.61;388987;104;2081094;-70
2021/08/08 04:42:38;;;;;;;9.21;5.16;;;;;;;23.87;49.46;99259.13;375959;105;1962069;-70
2021/08/08 04:44:02;;;;;;;8.62;5.03;;;;;;;23.91;49.42;99259.32;379922;105;1965068;-70
2021/08/08 04:45:15;;;;;;;8.95;5.33;;;;;;;24.10;49.06;99254.53;389175;104;2072070;-70
2021/08/08 04:46:21;;;;;;;9.81;5.83;;;;;;;24.01;48.84;99261.08;331213;107;2753057;-69
2021/08/08 04:47:27;;;;;;;9.64;6.00;;;;;;;23.92;49.07;99258.19;342250;107;1962052;-71
2021/08/08 04:48:39;;;;;;;10.74;5.06;;;;;;;24.10;48.53;99262.81;392142;104;2072060;-71
2021/08/08 04:49:44;;;;;;;8.94;4.84;;;;;;;23.93;48.57;99262.59;380824;105;1962017;-70
2021/08/08 04:50:50;;;;;;;9.36;4.88;;;;;;;23.97;48.82;99271.08;380773;105;1963453;-71
2021/08/08 04:51:56;;;;;;;10.43;4.92;;;;;;;23.97;48.82;99263.61;379269;104;1963995;-72
2021/08/08 04:53:02;;;;;;;10.06;5.56;;;;;;;24.01;48.94;99261.89;334382;105;2778928;-71
2021/08/08 04:54:15;;;;;;;9.49;4.51;;;;;;;24.12;48.99;99270.80;387527;106;1965050;-71
2021/08/08 04:55:22;;;;;;;9.18;5.18;;;;;;;24.00;48.97;99260.27;367891;108;1962971;-72
2021/08/08 04:56:35;;;;;;;9.15;4.73;;;;;;;24.16;49.17;99262.71;396661;103;1965993;-72
2021/08/08 04:57:40;;;;;;;9.21;4.49;;;;;;;24.07;48.71;99265.37;368599;108;1961877;-72
2021/08/08 04:59:04;;;;;;;8.98;4.98;;;;;;;24.06;49.03;99272.83;334512;111;1963014;-72
2021/08/08 05:00:10;;;;;;;10.85;5.96;;;;;;;24.12;48.83;99273.55;364305;109;1961871;-71
2021/08/08 05:01:23;;;;;;;9.81;5.42;;;;;;;24.32;48.63;99267.64;394385;103;2072054;-72
2021/08/08 05:02:29;;;;;;;9.52;5.24;;;;;;;24.21;48.57;99274.46;305675;105;2301949;-71
2021/08/08 05:03:35;;;;;;;10.07;4.97;;;;;;;24.23;48.76;99274.17;367012;107;1961970;-73
2021/08/08 05:04:47;;;;;;;8.66;4.25;;;;;;;24.19;48.84;99268.45;395916;104;1986061;-71
2021/08/08 05:05:53;;;;;;;7.76;4.23;;;;;;;24.16;48.43;99269.08;372881;107;1961949;-72
2021/08/08 05:07:05;;;;;;;9.52;5.36;;;;;;;24.33;48.61;99277.55;379025;106;2081108;-71
2021/08/08 05:08:10;;;;;;;8.65;4.84;;;;;;;24.28;48.70;99277.64;365347;109;1963922;-70
2021/08/08 05:09:34;;;;;;;8.39;4.39;;;;;;;24.18;48.96;99277.84;366818;109;1961996;-72
2021/08/08 05:10:40;;;;;;;7.74;3.66;;;;;;;24.29;48.85;99273.78;310318;109;2346000;-71
2021/08/08 05:11:52;;;;;;;6.79;3.68;;;;;;;24.00;48.75;99212.52;382242;106;2072001;-70
2021/08/08 05:12:58;;;;;;;7.59;3.58;;;;;;;24.35;48.28;99282.77;367901;108;1962048;-72
2021/08/08 05:14:11;;;;;;;6.11;2.91;;;;;;;24.60;48.06;99277.87;391542;104;1985947;-72
2021/08/08 05:15:18;;;;;;;4.77;2.61;;;;;;;24.60;47.52;99278.69;375475;105;1961982;-72
2021/08/08 05:16:43;;;;;;;5.22;2.62;;;;;;;24.72;47.21;99273.47;376870;106;1964995;-72
2021/08/08 05:17:48;;;;;;;5.18;2.80;;;;;;;24.81;46.82;99278.26;375813;105;1964002;-71
2021/08/08 05:18:54;;;;;;;6.24;2.71;;;;;;;24.75;46.84;99277.55;372984;107;1962014;-71
2021/08/08 05:20:08;;;;;;;5.27;2.86;;;;;;;24.86;46.70;99278.95;363812;104;2530241;-70
2021/08/08 05:21:13;;;;;;;5.92;2.93;;;;;;;24.89;46.50;99280.28;379868;105;1962964;-72
2021/08/08 05:22:26;;;;;;;6.68;3.06;;;;;;;24.93;46.65;99282.13;393121;104;1986937;-72
2021/08/08 05:23:31;;;;;;;6.28;3.36;;;;;;;24.84;46.68;99277.63;367806;108;1962079;-71
2021/08/08 05:24:55;;;;;;;5.11;2.87;;;;;;;24.83;46.74;99276.82;367950;108;1961979;-71
2021/08/08 05:26:07;;;;;;;6.39;2.73;;;;;;;24.95;46.81;99284.56;377025;108;1987017;-72
2021/08/08 05:27:12;;;;;;;5.97;2.46;;;;;;;24.95;46.41;99279.03;359943;112;1964056;-72
2021/08/08 05:28:25;;;;;;;5.48;2.82;;;;;;;25.05;46.69;99281.56;378488;106;2074023;-70
2021/08/08 05:29:30;;;;;;;5.06;2.68;;;;;;;24.94;46.87;99291.23;363522;109;1962079;-72